createdAt,value
2023-02-11T00:01:51.106Z,16.07
2023-02-11T00:04:19.524Z,14.37
2023-02-11T00:06:47.889Z,14.07
2023-02-11T00:09:16.385Z,15.83
2023-02-11T00:11:46.101Z,15.13
2023-02-11T00:14:14.507Z,14.43
2023-02-11T00:16:43.274Z,13.77
2023-02-11T00:19:11.756Z,15.07
2023-02-11T00:21:41.498Z,14.50
2023-02-11T00:24:10.324Z,15.77
2023-02-11T00:26:38.591Z,14.20
2023-02-11T00:29:08.281Z,15.30
2023-02-11T00:31:36.776Z,13.10
2023-02-11T00:34:06.978Z,13.93
2023-02-11T00:36:35.647Z,14.90
2023-02-11T00:39:04.247Z,13.50
2023-02-11T00:41:32.937Z,14.90
2023-02-11T00:44:01.613Z,13.70
2023-02-11T00:46:31.863Z,12.73
2023-02-11T00:49:00.597Z,14.07
2023-02-11T00:51:29.740Z,12.43
2023-02-11T00:53:58.124Z,13.07
2023-02-11T00:56:26.886Z,13.47
2023-02-11T00:58:57.531Z,13.07
2023-02-11T01:01:26.122Z,13.73
2023-02-11T01:03:56.065Z,15.07
2023-02-11T01:06:24.922Z,13.83
2023-02-11T01:08:53.462Z,13.10
2023-02-11T01:11:23.348Z,14.73
2023-02-11T01:13:52.330Z,14.33
2023-02-11T01:16:22.549Z,13.77
2023-02-11T01:18:50.913Z,13.93
2023-02-11T01:21:21.270Z,13.23
2023-02-11T01:23:51.271Z,14.53
2023-02-11T01:26:20.141Z,13.83
2023-02-11T01:28:48.658Z,13.10
2023-02-11T01:31:16.985Z,14.33
2023-02-11T01:33:45.388Z,15.83
2023-02-11T01:36:14.403Z,15.70
2023-02-11T01:38:44.784Z,14.10
2023-02-11T01:41:15.609Z,13.60
2023-02-11T01:43:46.787Z,13.83
2023-02-11T01:46:36.534Z,13.50
2023-02-11T01:49:08.680Z,14.30
2023-02-11T01:51:41.539Z,12.93
2023-02-11T01:54:32.956Z,15.60
2023-02-11T01:57:21.684Z,12.60
2023-02-11T01:59:57.461Z,14.00
2023-02-11T02:02:34.803Z,13.20
2023-02-11T02:05:09.390Z,13.90
2023-02-11T02:07:42.549Z,13.10
2023-02-11T02:10:16.459Z,13.13
2023-02-11T02:12:45.146Z,13.30
2023-02-11T02:15:31.770Z,13.73
2023-02-11T02:18:11.808Z,12.20
2023-02-11T02:21:36.624Z,12.60
2023-02-11T02:24:40.628Z,11.80
2023-02-11T02:27:27.243Z,13.57
2023-02-11T02:30:15.109Z,12.63
2023-02-11T02:33:21.434Z,12.90
2023-02-11T02:35:59.602Z,12.73
2023-02-11T02:38:32.617Z,12.70
2023-02-11T02:41:05.178Z,13.40
2023-02-11T02:43:34.958Z,12.87
2023-02-11T02:46:14.741Z,13.10
2023-02-11T02:48:45.077Z,13.23
2023-02-11T02:51:34.448Z,11.03
2023-02-11T02:54:20.918Z,10.60
2023-02-11T02:56:55.755Z,12.03
2023-02-11T02:59:35.210Z,11.90
2023-02-11T03:02:13.209Z,12.00
2023-02-11T03:04:51.060Z,12.37
2023-02-11T03:07:26.696Z,11.47
2023-02-11T03:10:03.192Z,12.10
2023-02-11T03:12:34.243Z,11.50
2023-02-11T03:15:04.235Z,13.07
2023-02-11T03:17:35.055Z,12.23
2023-02-11T03:20:07.469Z,11.77
2023-02-11T03:22:41.683Z,11.63
2023-02-11T03:25:10.914Z,11.63
2023-02-11T03:27:47.731Z,12.00
2023-02-11T03:30:20.183Z,11.27
2023-02-11T03:32:52.523Z,11.00
2023-02-11T03:35:27.969Z,10.73
2023-02-11T03:38:00.862Z,11.80
2023-02-11T03:40:33.746Z,11.17
2023-02-11T03:43:07.958Z,10.40
2023-02-11T03:45:38.523Z,10.70
2023-02-11T03:48:12.888Z,11.37
2023-02-11T03:50:45.777Z,9.67
2023-02-11T03:53:22.266Z,10.33
2023-02-11T03:55:56.196Z,11.03
2023-02-11T03:58:24.609Z,9.30
2023-02-11T04:00:52.905Z,10.30
2023-02-11T04:03:21.521Z,10.67
2023-02-11T04:05:51.538Z,10.80
2023-02-11T04:08:20.198Z,11.03
2023-02-11T04:10:48.792Z,9.90
2023-02-11T04:13:17.151Z,11.13
2023-02-11T04:15:48.509Z,11.10
2023-02-11T04:18:17.152Z,12.90
2023-02-11T04:20:45.370Z,19.97
2023-02-11T04:23:15.160Z,19.07
2023-02-11T04:25:44.002Z,39.03
2023-02-11T04:28:12.444Z,26.40
2023-02-11T04:30:40.848Z,16.20
2023-02-11T04:33:09.174Z,14.30
2023-02-11T04:35:37.628Z,12.47
2023-02-11T04:38:05.892Z,11.67
2023-02-11T04:40:35.764Z,12.87
2023-02-11T04:43:04.148Z,11.60
2023-02-11T04:45:32.556Z,12.23
2023-02-11T04:48:01.245Z,10.93
2023-02-11T04:50:30.377Z,10.77
2023-02-11T04:52:59.483Z,11.20
2023-02-11T04:55:28.497Z,11.17
2023-02-11T04:57:59.956Z,11.30
2023-02-11T05:00:28.772Z,10.90
2023-02-11T05:03:00.887Z,10.03
2023-02-11T05:05:34.253Z,11.80
2023-02-11T05:08:03.763Z,21.23
2023-02-11T05:10:35.787Z,41.27
2023-02-11T05:14:23.816Z,23.73
2023-02-11T05:18:10.805Z,13.20
2023-02-11T05:25:13.595Z,11.03
2023-02-11T05:29:26.742Z,10.07
2023-02-11T05:32:12.295Z,10.67
2023-02-11T05:34:43.263Z,10.90
2023-02-11T05:37:13.145Z,10.60
2023-02-11T05:39:42.114Z,10.40
2023-02-11T05:42:12.798Z,10.30
2023-02-11T05:44:44.636Z,11.10
2023-02-11T05:47:14.906Z,10.30
2023-02-11T05:49:47.541Z,10.27
2023-02-11T05:52:16.496Z,10.93
2023-02-11T05:54:48.802Z,12.33
2023-02-11T05:57:22.212Z,11.57
2023-02-11T05:59:52.714Z,11.53
2023-02-11T06:02:26.746Z,11.40
2023-02-11T06:04:59.519Z,11.40
2023-02-11T06:07:34.900Z,11.87
2023-02-11T06:10:06.932Z,10.20
2023-02-11T06:12:35.730Z,13.07
2023-02-11T06:15:12.523Z,12.10
2023-02-11T06:17:45.679Z,11.30
2023-02-11T06:20:16.448Z,11.53
2023-02-11T06:22:50.426Z,12.00
2023-02-11T06:25:22.278Z,12.70
2023-02-11T06:27:51.410Z,11.90
2023-02-11T06:30:27.057Z,16.57
2023-02-11T06:32:59.089Z,23.43
2023-02-11T06:35:28.524Z,20.40
2023-02-11T06:37:59.693Z,17.20
2023-02-11T06:40:29.122Z,13.00
2023-02-11T06:43:03.355Z,13.60
2023-02-11T06:45:33.356Z,12.37
2023-02-11T06:48:03.226Z,12.80
2023-02-11T06:50:31.600Z,12.50
2023-02-11T06:53:00.683Z,12.97
2023-02-11T06:55:29.401Z,13.60
2023-02-11T06:57:58.012Z,13.20
2023-02-11T07:00:26.936Z,12.70
2023-02-11T07:02:55.659Z,12.03
2023-02-11T07:05:25.830Z,11.80
2023-02-11T07:07:54.232Z,12.70
2023-02-11T07:10:22.694Z,12.67
2023-02-11T07:12:51.082Z,13.30
2023-02-11T07:15:19.752Z,12.70
2023-02-11T07:17:48.140Z,16.30
2023-02-11T07:20:16.703Z,29.70
2023-02-11T07:22:46.382Z,20.93
2023-02-11T07:25:14.832Z,15.90
2023-02-11T07:27:43.263Z,14.00
2023-02-11T07:30:13.353Z,12.97
2023-02-11T07:32:41.759Z,14.57
2023-02-11T07:35:10.097Z,13.60
2023-02-11T07:37:38.517Z,13.30
2023-02-11T07:40:09.410Z,13.90
2023-02-11T07:42:37.871Z,13.27
2023-02-11T07:45:06.973Z,16.07
2023-02-11T07:47:35.978Z,25.73
2023-02-11T07:50:04.493Z,34.30
2023-02-11T07:52:33.062Z,22.57
2023-02-11T07:55:03.779Z,17.23
2023-02-11T07:57:34.497Z,16.10
2023-02-11T08:00:03.064Z,15.40
2023-02-11T08:02:39.071Z,14.00
2023-02-11T08:05:08.133Z,15.60
2023-02-11T08:07:36.600Z,14.37
2023-02-11T08:10:05.310Z,16.43
2023-02-11T08:12:35.022Z,15.70
2023-02-11T08:15:03.444Z,15.30
2023-02-11T08:17:31.893Z,12.70
2023-02-11T08:20:00.263Z,12.80
2023-02-11T08:22:28.960Z,14.53
2023-02-11T08:24:58.438Z,15.97
2023-02-11T08:27:27.571Z,15.03
2023-02-11T08:29:59.530Z,14.27
2023-02-11T08:32:28.097Z,22.10
2023-02-11T08:34:56.959Z,28.17
2023-02-11T08:37:25.350Z,20.27
2023-02-11T08:39:54.050Z,18.13
2023-02-11T08:42:22.627Z,16.20
2023-02-11T08:44:51.039Z,15.90
2023-02-11T08:47:20.757Z,18.30
2023-02-11T08:49:49.114Z,18.63
2023-02-11T08:52:17.517Z,16.27
2023-02-11T08:54:46.136Z,18.00
2023-02-11T08:57:14.556Z,19.13
2023-02-11T08:59:42.945Z,19.20
2023-02-11T09:02:13.770Z,17.97
2023-02-11T09:04:43.573Z,16.60
2023-02-11T09:07:12.787Z,17.10
2023-02-11T09:09:41.176Z,17.33
2023-02-11T09:12:09.608Z,17.90
2023-02-11T09:14:38.405Z,17.07
2023-02-11T09:17:06.766Z,17.83
2023-02-11T09:19:35.035Z,17.17
2023-02-11T09:22:04.823Z,17.97
2023-02-11T09:24:33.614Z,19.17
2023-02-11T09:27:02.024Z,19.03
2023-02-11T09:29:30.694Z,18.50
2023-02-11T09:31:59.494Z,17.00
2023-02-11T09:34:28.632Z,17.80
2023-02-11T09:36:56.996Z,19.17
2023-02-11T09:39:27.595Z,17.30
2023-02-11T09:42:26.361Z,18.47
2023-02-11T09:44:54.866Z,19.60
2023-02-11T09:47:29.509Z,17.43
2023-02-11T09:50:02.713Z,17.90
2023-02-11T09:52:41.287Z,19.57
2023-02-11T09:55:19.839Z,18.43
2023-02-11T09:57:48.640Z,16.07
2023-02-11T10:00:20.785Z,17.70
2023-02-11T10:03:05.021Z,19.07
2023-02-11T10:05:45.720Z,20.20
2023-02-11T10:08:21.300Z,20.00
2023-02-11T10:10:54.973Z,17.97
2023-02-11T10:13:36.943Z,19.60
2023-02-11T10:16:17.374Z,19.07
2023-02-11T10:19:00.429Z,18.47
2023-02-11T10:21:41.372Z,20.40
2023-02-11T10:24:13.869Z,17.27
2023-02-11T10:26:45.446Z,19.07
2023-02-11T10:29:27.268Z,19.50
2023-02-11T10:31:58.222Z,18.33
2023-02-11T10:34:26.901Z,19.03
2023-02-11T10:36:55.375Z,20.40
2023-02-11T10:39:25.042Z,20.20
2023-02-11T10:41:58.647Z,19.10
2023-02-11T10:44:32.372Z,17.57
2023-02-11T10:47:05.298Z,19.50
2023-02-11T10:49:40.430Z,19.83
2023-02-11T10:52:20.681Z,19.23
2023-02-11T10:55:16.613Z,18.70
2023-02-11T10:57:54.440Z,18.83
2023-02-11T11:00:36.839Z,20.27
2023-02-11T11:03:16.875Z,19.27
2023-02-11T11:05:51.012Z,20.33
2023-02-11T11:08:20.630Z,20.73
2023-02-11T11:10:50.577Z,19.30
2023-02-11T11:13:32.963Z,19.30
2023-02-11T11:16:25.996Z,19.70
2023-02-11T11:19:15.524Z,20.90
2023-02-11T11:21:49.251Z,19.57
2023-02-11T11:24:21.620Z,21.40
2023-02-11T11:26:52.278Z,27.23
2023-02-11T11:29:28.885Z,29.67
2023-02-11T11:31:59.611Z,23.83
2023-02-11T11:34:31.088Z,22.20
2023-02-11T11:37:01.478Z,22.20
2023-02-11T11:39:32.780Z,20.20
2023-02-11T11:42:04.423Z,19.93
2023-02-11T11:44:36.271Z,18.47
2023-02-11T11:47:28.295Z,20.23
2023-02-11T11:50:21.441Z,21.30
2023-02-11T11:52:55.448Z,19.97
2023-02-11T11:55:28.519Z,21.60
2023-02-11T11:57:57.031Z,21.67
2023-02-11T12:00:33.487Z,22.73
2023-02-11T12:03:33.002Z,21.57
2023-02-11T12:06:23.727Z,20.53
2023-02-11T12:09:03.143Z,21.33
2023-02-11T12:11:41.563Z,19.70
2023-02-11T12:14:20.656Z,19.53
2023-02-11T12:17:01.701Z,19.47
2023-02-11T12:20:14.281Z,20.20
2023-02-11T12:22:51.491Z,18.37
2023-02-11T12:25:28.727Z,20.00
2023-02-11T12:28:12.407Z,22.13
2023-02-11T12:30:54.246Z,52.97
2023-02-11T12:33:53.108Z,42.50
2023-02-11T12:36:35.870Z,26.30
2023-02-11T12:39:14.447Z,22.60
2023-02-11T12:42:28.378Z,22.80
2023-02-11T12:45:12.479Z,19.97
2023-02-11T12:47:50.543Z,21.90
2023-02-11T12:50:30.115Z,20.00
2023-02-11T12:53:17.888Z,21.40
2023-02-11T12:55:49.991Z,22.93
2023-02-11T12:58:29.675Z,23.33
2023-02-11T13:01:08.231Z,23.70
2023-02-11T13:03:41.305Z,22.03
2023-02-11T13:06:15.696Z,23.23
2023-02-11T13:08:47.213Z,19.60
2023-02-11T13:11:19.927Z,22.40
2023-02-11T13:13:53.811Z,20.90
2023-02-11T13:16:34.623Z,20.67
2023-02-11T13:19:09.067Z,24.30
2023-02-11T13:21:55.719Z,21.23
2023-02-11T13:24:30.513Z,22.60
2023-02-11T13:27:10.701Z,20.87
2023-02-11T13:30:04.365Z,22.97
2023-02-11T13:33:08.548Z,20.37
2023-02-11T13:35:38.632Z,22.60
2023-02-11T13:38:21.103Z,21.73
2023-02-11T13:41:02.436Z,23.57
2023-02-11T13:43:32.779Z,22.17
2023-02-11T13:46:03.032Z,22.23
2023-02-11T13:48:34.046Z,21.93
2023-02-11T13:51:05.287Z,22.37
2023-02-11T13:53:47.721Z,22.13
2023-02-11T13:56:29.956Z,23.20
2023-02-11T13:59:01.896Z,22.60
2023-02-11T14:02:13.176Z,24.83
2023-02-11T14:05:21.488Z,23.10
2023-02-11T14:08:39.959Z,21.93
2023-02-11T14:11:27.558Z,21.70
2023-02-11T14:14:24.028Z,22.57
2023-02-11T14:17:22.477Z,21.70
2023-02-11T14:19:51.518Z,28.43
2023-02-11T14:22:26.010Z,32.40
2023-02-11T14:24:57.497Z,25.30
2023-02-11T14:27:32.493Z,23.37
2023-02-11T14:30:17.757Z,21.70
2023-02-11T14:33:06.574Z,21.20
2023-02-11T14:35:42.379Z,21.97
2023-02-11T14:38:21.501Z,23.50
2023-02-11T14:40:57.121Z,24.03
2023-02-11T14:43:31.500Z,22.43
2023-02-11T14:46:01.118Z,22.30
2023-02-11T14:48:32.615Z,21.03
2023-02-11T14:51:04.450Z,22.80
2023-02-11T14:53:34.568Z,22.23
2023-02-11T14:56:02.939Z,21.10
2023-02-11T14:58:34.448Z,21.30
2023-02-11T15:01:09.353Z,23.03
2023-02-11T15:03:39.953Z,23.23
2023-02-11T15:06:17.167Z,23.50
2023-02-11T15:08:50.266Z,21.67
2023-02-11T15:11:21.741Z,21.03
2023-02-11T15:13:55.070Z,21.37
2023-02-11T15:16:26.332Z,20.77
2023-02-11T15:18:57.132Z,21.67
2023-02-11T15:21:27.498Z,21.43
2023-02-11T15:24:01.933Z,20.47
2023-02-11T15:26:31.203Z,20.00
2023-02-11T15:29:01.625Z,20.60
2023-02-11T15:31:32.471Z,21.93
2023-02-11T15:34:09.420Z,21.60
2023-02-11T15:36:39.781Z,21.53
2023-02-11T15:39:19.162Z,22.43
2023-02-11T15:41:47.989Z,23.23
2023-02-11T15:44:32.620Z,23.57
2023-02-11T15:47:01.622Z,22.47
2023-02-11T15:49:29.990Z,23.90
2023-02-11T15:51:59.163Z,21.53
2023-02-11T15:54:29.599Z,23.20
2023-02-11T15:57:03.861Z,20.80
2023-02-11T15:59:38.238Z,21.63
2023-02-11T16:02:16.946Z,23.47
2023-02-11T16:04:51.985Z,23.67
2023-02-11T16:07:45.603Z,24.83
2023-02-11T16:10:28.836Z,23.60
2023-02-11T16:13:04.232Z,22.70
2023-02-11T16:15:44.801Z,51.73
2023-02-11T16:18:37.415Z,48.93
2023-02-11T16:21:08.988Z,36.37
2023-02-11T16:23:39.540Z,32.37
2023-02-11T16:26:13.597Z,28.00
2023-02-11T16:28:42.446Z,25.40
2023-02-11T16:31:12.594Z,23.90
2023-02-11T16:33:41.028Z,23.83
2023-02-11T16:36:14.853Z,22.47
2023-02-11T16:38:43.183Z,24.03
2023-02-11T16:41:12.809Z,22.73
2023-02-11T16:43:41.390Z,24.80
2023-02-11T16:46:12.919Z,23.47
2023-02-11T16:48:41.377Z,22.63
2023-02-11T16:51:12.920Z,24.20
2023-02-11T16:53:41.477Z,23.63
2023-02-11T16:56:15.628Z,25.83
2023-02-11T16:58:44.110Z,25.17
2023-02-11T17:01:14.741Z,23.53
2023-02-11T17:03:43.789Z,23.50
2023-02-11T17:06:13.604Z,21.80
2023-02-11T17:08:42.657Z,22.00
2023-02-11T17:11:11.181Z,21.50
2023-02-11T17:13:41.655Z,22.63
2023-02-11T17:16:17.502Z,25.33
2023-02-11T17:18:46.078Z,23.07
2023-02-11T17:21:14.614Z,25.97
2023-02-11T17:23:43.190Z,24.27
2023-02-11T17:26:11.784Z,25.03
2023-02-11T17:28:40.425Z,24.60
2023-02-11T17:31:09.854Z,24.10
2023-02-11T17:33:39.686Z,25.67
2023-02-11T17:36:09.263Z,24.53
2023-02-11T17:38:38.750Z,25.50
2023-02-11T17:41:07.403Z,25.60
2023-02-11T17:43:35.884Z,22.00
2023-02-11T17:46:08.414Z,25.00
2023-02-11T17:48:39.838Z,24.83
2023-02-11T17:51:23.218Z,23.30
2023-02-11T17:53:52.319Z,26.23
2023-02-11T17:56:21.199Z,26.33
2023-02-11T17:58:49.803Z,27.40
2023-02-11T18:01:18.347Z,25.80
2023-02-11T18:03:48.304Z,33.60
2023-02-11T18:06:16.691Z,64.70
2023-02-11T18:08:45.195Z,46.23
2023-02-11T18:11:15.167Z,35.60
2023-02-11T18:13:43.887Z,34.53
2023-02-11T18:16:15.939Z,31.47
2023-02-11T18:18:45.077Z,28.40
2023-02-11T18:21:17.209Z,28.57
2023-02-11T18:23:47.492Z,28.70
2023-02-11T18:26:18.385Z,28.30
2023-02-11T18:28:47.133Z,28.07
2023-02-11T18:31:16.416Z,29.50
2023-02-11T18:33:45.305Z,27.37
2023-02-11T18:36:16.312Z,28.03
2023-02-11T18:38:45.319Z,29.90
2023-02-11T18:41:14.961Z,29.00
2023-02-11T18:43:43.674Z,29.30
2023-02-11T18:46:15.090Z,29.83
2023-02-11T18:48:44.835Z,29.13
2023-02-11T18:51:18.398Z,29.30
2023-02-11T18:53:47.231Z,29.80
2023-02-11T18:56:17.143Z,30.07
2023-02-11T18:58:45.857Z,28.70
2023-02-11T19:01:16.349Z,27.80
2023-02-11T19:03:45.511Z,34.27
2023-02-11T19:06:20.874Z,63.47
2023-02-11T19:08:49.321Z,58.27
2023-02-11T19:11:19.817Z,48.00
2023-02-11T19:13:48.859Z,37.83
2023-02-11T19:16:19.842Z,33.00
2023-02-11T19:18:48.784Z,33.40
2023-02-11T19:21:20.626Z,32.80
2023-02-11T19:23:49.115Z,33.30
2023-02-11T19:26:17.468Z,31.53
2023-02-11T19:28:45.831Z,31.20
2023-02-11T19:31:14.958Z,32.00
2023-02-11T19:33:43.410Z,28.60
2023-02-11T19:36:16.332Z,30.30
2023-02-11T19:38:46.350Z,30.37
2023-02-11T19:41:16.310Z,30.03
2023-02-11T19:43:46.189Z,30.90
2023-02-11T19:46:14.649Z,32.20
2023-02-11T19:48:43.240Z,29.87
2023-02-11T19:51:13.356Z,30.63
2023-02-11T19:53:42.089Z,29.60
2023-02-11T19:56:13.356Z,30.23
2023-02-11T19:58:42.585Z,30.27
2023-02-11T20:01:13.784Z,28.23
2023-02-11T20:03:43.134Z,28.33
2023-02-11T20:06:14.805Z,29.47
2023-02-11T20:08:43.280Z,29.43
2023-02-11T20:11:14.460Z,30.83
2023-02-11T20:13:43.427Z,31.17
2023-02-11T20:16:14.508Z,30.40
2023-02-11T20:18:43.484Z,29.70
2023-02-11T20:21:14.078Z,29.30
2023-02-11T20:23:42.874Z,30.63
2023-02-11T20:26:15.566Z,28.30
2023-02-11T20:28:44.937Z,28.80
2023-02-11T20:31:13.546Z,29.30
2023-02-11T20:33:44.132Z,30.73
2023-02-11T20:36:18.446Z,29.97
2023-02-11T20:38:49.662Z,29.77
2023-02-11T20:41:22.666Z,30.77
2023-02-11T20:43:54.509Z,30.17
2023-02-11T20:46:26.533Z,31.47
2023-02-11T20:48:57.420Z,29.70
2023-02-11T20:51:31.228Z,29.07
2023-02-11T20:54:04.360Z,32.27
2023-02-11T20:56:36.724Z,30.40
2023-02-11T20:59:10.349Z,30.60
2023-02-11T21:01:42.898Z,30.43
2023-02-11T21:04:19.350Z,31.57
2023-02-11T21:06:54.187Z,28.70
2023-02-11T21:09:25.379Z,32.90
2023-02-11T21:11:56.425Z,31.80
2023-02-11T21:14:29.883Z,31.07
2023-02-11T21:16:58.872Z,31.07
2023-02-11T21:19:28.459Z,29.37
2023-02-11T21:22:00.733Z,30.23
2023-02-11T21:24:31.028Z,32.60
2023-02-11T21:27:13.592Z,30.50
2023-02-11T21:29:53.366Z,29.47
2023-02-11T21:32:26.680Z,30.50
2023-02-11T21:34:55.919Z,26.63
2023-02-11T21:37:26.382Z,28.43
2023-02-11T21:39:55.639Z,28.73
2023-02-11T21:42:28.279Z,29.83
2023-02-11T21:44:56.767Z,30.07
2023-02-11T21:47:26.086Z,30.20
2023-02-11T21:49:54.874Z,28.40
2023-02-11T21:52:23.186Z,29.97
2023-02-11T21:54:51.989Z,31.77
2023-02-11T21:57:20.427Z,29.70
2023-02-11T21:59:50.225Z,30.70
2023-02-11T22:02:18.726Z,29.50
2023-02-11T22:04:47.389Z,30.23
2023-02-11T22:07:15.890Z,31.37
2023-02-11T22:09:44.215Z,29.53
2023-02-11T22:12:12.544Z,30.43
2023-02-11T22:14:40.904Z,30.53
2023-02-11T22:17:10.652Z,30.60
2023-02-11T22:19:39.356Z,28.73
2023-02-11T22:22:09.357Z,30.70
2023-02-11T22:24:37.756Z,27.47
2023-02-11T22:27:06.034Z,27.60
2023-02-11T22:29:34.399Z,30.90
2023-02-11T22:32:03.020Z,28.60
2023-02-11T22:34:32.895Z,29.70
2023-02-11T22:37:02.368Z,32.73
2023-02-11T22:39:31.096Z,29.63
2023-02-11T22:41:59.832Z,31.93
2023-02-11T22:44:28.445Z,32.30
2023-02-11T22:46:56.830Z,29.37
2023-02-11T22:49:25.325Z,31.67
2023-02-11T22:51:54.923Z,31.53
2023-02-11T22:54:23.366Z,31.07
2023-02-11T22:56:52.429Z,29.83
2023-02-11T22:59:21.517Z,30.17
2023-02-11T23:01:49.965Z,29.17
2023-02-11T23:04:19.313Z,29.27
2023-02-11T23:06:49.431Z,30.87
2023-02-11T23:09:19.231Z,32.73
2023-02-11T23:11:49.389Z,29.90
2023-02-11T23:14:17.880Z,30.57
2023-02-11T23:16:46.287Z,30.97
2023-02-11T23:19:14.826Z,30.90
2023-02-11T23:21:43.140Z,29.83
2023-02-11T23:24:14.455Z,29.13
2023-02-11T23:26:45.350Z,31.37
2023-02-11T23:29:14.506Z,29.50
2023-02-11T23:31:46.069Z,30.13
2023-02-11T23:34:17.164Z,31.03
2023-02-11T23:36:45.849Z,29.80
2023-02-11T23:39:15.829Z,31.60
2023-02-11T23:41:45.910Z,29.50
2023-02-11T23:44:14.405Z,32.53
2023-02-11T23:46:42.852Z,30.63
2023-02-11T23:49:11.246Z,28.27
2023-02-11T23:51:39.538Z,32.40
2023-02-11T23:54:07.912Z,30.97
2023-02-11T23:56:37.596Z,30.53
2023-02-11T23:59:07.540Z,29.63
